Praco, Alabama
Current Conditions -  °F | °C
As of 9:15 AM on Sunday 21 Dec 2014 (Local Time) from KJFX Reporting Station
Haze Haze  
Wind Chill: 43°   Ceiling: 2700
Heat Index: 43°   Visibility: 4mi
Dew Point: 39°   Wind: 0mph
Humidity: 87%   Direction: NA
Pressure: 30.21"   Gusts: NA
Location:  33.6422°N, 87.1382°W
Report Text: KJFX 211515Z AUTO 00000KT 4SM BR OVC027 06/04 A3021 RMK A02 P-128
Loading
Personal Weather Stations






























Interactive Weather Map New forecast layout! Learn more

10-Day Weather Forecast

Advertisements
Track Severe Weather on mobile